createdAt,value
2022-12-09T00:03:51.008Z,2.31
2022-12-09T00:08:59.622Z,2.31
2022-12-09T00:14:07.705Z,2.24
2022-12-09T00:19:25.838Z,2.18
2022-12-09T00:24:35.144Z,2.13
2022-12-09T00:29:42.769Z,2.14
2022-12-09T00:34:51.309Z,2.19
2022-12-09T00:39:58.494Z,2.24
2022-12-09T00:45:04.025Z,2.26
2022-12-09T00:50:13.685Z,2.23
2022-12-09T00:55:22.720Z,2.17
2022-12-09T01:00:30.068Z,2.12
2022-12-09T01:05:37.927Z,2.11
2022-12-09T01:10:46.822Z,2.10
2022-12-09T01:15:54.590Z,2.07
2022-12-09T01:21:02.686Z,2.05
2022-12-09T01:26:10.634Z,2.05
2022-12-09T01:31:20.896Z,2.01
2022-12-09T01:36:31.135Z,1.94
2022-12-09T01:41:38.750Z,1.91
2022-12-09T01:46:46.959Z,1.88
2022-12-09T01:52:03.322Z,1.85
2022-12-09T01:57:11.954Z,1.90
2022-12-09T02:02:21.517Z,1.96
2022-12-09T02:07:30.293Z,1.95
2022-12-09T02:12:47.246Z,1.94
2022-12-09T02:17:59.325Z,1.94
2022-12-09T02:23:12.973Z,1.87
2022-12-09T02:28:36.269Z,1.87
2022-12-09T02:33:58.066Z,1.94
2022-12-09T02:39:09.920Z,2.00
2022-12-09T02:44:21.205Z,2.04
2022-12-09T02:49:31.965Z,2.02
2022-12-09T02:54:43.747Z,2.01
2022-12-09T02:59:51.244Z,2.05
2022-12-09T03:05:11.317Z,2.07
2022-12-09T03:10:25.253Z,2.04
2022-12-09T03:15:36.756Z,2.03
2022-12-09T03:20:46.932Z,2.08
2022-12-09T03:26:00.192Z,2.13
2022-12-09T03:31:14.860Z,2.17
2022-12-09T03:36:24.318Z,2.17
2022-12-09T03:41:34.267Z,2.13
2022-12-09T03:46:44.412Z,2.08
2022-12-09T03:51:57.304Z,2.09
2022-12-09T03:57:05.843Z,2.10
2022-12-09T04:02:14.210Z,2.12
2022-12-09T04:07:21.648Z,2.13
2022-12-09T04:12:27.777Z,2.08
2022-12-09T04:17:35.156Z,1.91
2022-12-09T04:22:42.716Z,1.75
2022-12-09T04:27:50.471Z,1.67
2022-12-09T04:32:58.009Z,1.63
2022-12-09T04:38:05.249Z,1.58
2022-12-09T04:43:12.779Z,1.56
2022-12-09T04:48:20.440Z,1.55
2022-12-09T04:53:28.623Z,1.54
2022-12-09T04:58:41.826Z,1.56
2022-12-09T05:03:51.706Z,1.57
2022-12-09T05:08:59.474Z,1.47
2022-12-09T05:14:06.744Z,1.42
2022-12-09T05:19:14.758Z,1.35
2022-12-09T05:24:22.400Z,1.23
2022-12-09T05:29:29.925Z,1.06
2022-12-09T05:34:37.685Z,0.99
2022-12-09T05:39:45.928Z,0.93
2022-12-09T05:44:53.672Z,0.84
2022-12-09T05:50:07.406Z,0.70
2022-12-09T05:55:15.996Z,0.49
2022-12-09T06:00:25.133Z,0.33
2022-12-09T06:05:33.602Z,0.14
2022-12-09T06:10:44.197Z,0.04
2022-12-09T06:15:51.925Z,-0.04
2022-12-09T06:20:59.670Z,-0.01
2022-12-09T06:26:07.564Z,0.02
2022-12-09T06:31:15.565Z,-0.12
2022-12-09T06:36:23.673Z,-0.24
2022-12-09T06:41:31.023Z,-0.26
2022-12-09T06:46:39.114Z,-0.32
2022-12-09T06:51:47.017Z,-0.40
2022-12-09T06:56:54.477Z,-0.50
2022-12-09T07:02:02.082Z,-0.53
2022-12-09T07:07:11.207Z,-0.58
2022-12-09T07:12:19.117Z,-0.67
2022-12-09T07:17:27.015Z,-0.69
2022-12-09T07:22:35.682Z,-0.66
2022-12-09T07:27:42.996Z,-0.67
2022-12-09T07:32:50.338Z,-0.55
2022-12-09T07:37:58.606Z,-0.43
2022-12-09T07:43:06.926Z,-0.32
2022-12-09T07:48:14.568Z,-0.20
2022-12-09T07:53:22.292Z,-0.13
2022-12-09T07:58:29.866Z,-0.11
2022-12-09T08:03:38.211Z,-0.10
2022-12-09T08:08:46.620Z,-0.09
2022-12-09T08:13:57.000Z,-0.05
2022-12-09T08:19:04.468Z,0.03
2022-12-09T08:24:14.011Z,0.02
2022-12-09T08:29:24.392Z,0.03
2022-12-09T08:34:35.686Z,0.06
2022-12-09T08:39:44.368Z,0.17
2022-12-09T08:44:55.858Z,0.33
2022-12-09T08:50:09.950Z,0.49
2022-12-09T08:55:17.641Z,0.63
2022-12-09T09:00:23.516Z,0.76
2022-12-09T09:05:31.241Z,0.88
2022-12-09T09:10:40.091Z,1.05
2022-12-09T09:15:49.044Z,1.21
2022-12-09T09:20:59.763Z,1.32
2022-12-09T09:26:11.719Z,1.43
2022-12-09T09:31:22.262Z,1.52
2022-12-09T09:36:30.338Z,1.63
2022-12-09T09:41:48.121Z,1.72
2022-12-09T09:46:57.647Z,1.84
2022-12-09T09:52:13.295Z,1.98
2022-12-09T09:57:25.577Z,2.12
2022-12-09T10:02:49.482Z,2.22
2022-12-09T10:08:07.246Z,2.30
2022-12-09T10:13:26.898Z,2.39
2022-12-09T10:18:42.252Z,2.45
2022-12-09T10:23:51.977Z,2.52
2022-12-09T10:29:12.252Z,2.57
2022-12-09T10:34:21.240Z,2.62
2022-12-09T10:39:31.119Z,2.68
2022-12-09T10:44:39.164Z,2.71
2022-12-09T10:49:51.759Z,2.75
2022-12-09T10:55:01.123Z,2.80
2022-12-09T11:00:29.619Z,2.87
2022-12-09T11:05:45.165Z,2.96
2022-12-09T11:10:53.604Z,3.07
2022-12-09T11:16:05.356Z,3.16
2022-12-09T11:21:33.443Z,3.26
2022-12-09T11:26:40.070Z,3.36
2022-12-09T11:31:49.177Z,3.42
2022-12-09T11:36:59.160Z,3.46
2022-12-09T11:42:18.953Z,3.49
2022-12-09T11:47:57.320Z,3.53
2022-12-09T11:53:18.994Z,3.59
2022-12-09T12:04:02.257Z,3.73
2022-12-09T12:09:18.396Z,3.72
2022-12-09T12:14:30.853Z,3.69
2022-12-09T12:19:41.205Z,3.66
2022-12-09T12:25:17.508Z,3.63
2022-12-09T12:30:29.529Z,3.59
2022-12-09T12:35:49.649Z,3.56
2022-12-09T12:41:12.251Z,3.51
2022-12-09T12:46:45.354Z,3.47
2022-12-09T12:52:01.939Z,3.44
2022-12-09T12:57:18.563Z,3.40
2022-12-09T13:02:38.910Z,3.36
2022-12-09T13:07:51.611Z,3.34
2022-12-09T13:13:02.250Z,3.34
2022-12-09T13:18:16.029Z,3.37
2022-12-09T13:23:35.030Z,3.38
2022-12-09T13:28:50.816Z,3.35
2022-12-09T13:34:08.668Z,3.33
2022-12-09T13:39:36.718Z,3.30
2022-12-09T13:44:46.942Z,3.26
2022-12-09T13:50:00.084Z,3.22
2022-12-09T13:55:18.753Z,3.19
2022-12-09T14:00:26.068Z,3.18
2022-12-09T14:05:37.129Z,3.18
2022-12-09T14:10:50.496Z,3.19
2022-12-09T14:16:33.417Z,3.18
2022-12-09T14:21:40.852Z,3.14
2022-12-09T14:27:09.836Z,3.14
2022-12-09T14:32:23.964Z,3.11
2022-12-09T14:37:53.697Z,3.10
2022-12-09T14:43:16.259Z,3.09
2022-12-09T14:48:26.988Z,3.07
2022-12-09T14:53:39.193Z,3.06
2022-12-09T14:58:51.889Z,3.03
2022-12-09T15:04:01.246Z,2.96
2022-12-09T15:09:16.837Z,2.85
2022-12-09T15:14:30.299Z,2.71
2022-12-09T15:25:18.196Z,2.59
2022-12-09T15:30:28.716Z,2.56
2022-12-09T15:35:36.604Z,2.52
2022-12-09T15:41:07.612Z,2.43
2022-12-09T15:46:15.768Z,2.35
2022-12-09T15:51:26.627Z,2.22
2022-12-09T15:56:40.390Z,2.14
2022-12-09T16:01:54.005Z,2.05
2022-12-09T16:07:13.526Z,1.92
2022-12-09T16:12:33.991Z,1.78
2022-12-09T16:17:55.512Z,1.65
2022-12-09T16:23:05.227Z,1.50
2022-12-09T16:28:23.689Z,1.36
2022-12-09T16:33:35.705Z,1.29
2022-12-09T16:38:44.573Z,1.21
2022-12-09T16:43:59.743Z,1.19
2022-12-09T16:49:08.656Z,1.14
2022-12-09T16:54:21.105Z,1.06
2022-12-09T16:59:37.047Z,0.93
2022-12-09T17:04:46.449Z,0.81
2022-12-09T17:09:54.202Z,0.71
2022-12-09T17:15:01.472Z,0.68
2022-12-09T17:20:08.311Z,0.72
2022-12-09T17:25:15.778Z,0.74
2022-12-09T17:30:23.262Z,0.71
2022-12-09T17:35:33.963Z,0.64
2022-12-09T17:40:41.532Z,0.60
2022-12-09T17:45:48.771Z,0.58
2022-12-09T17:50:54.527Z,0.54
2022-12-09T17:56:05.893Z,0.49
2022-12-09T18:01:18.817Z,0.47
2022-12-09T18:06:26.362Z,0.43
2022-12-09T18:11:33.547Z,0.40
2022-12-09T18:16:39.290Z,0.37
2022-12-09T18:21:47.517Z,0.35
2022-12-09T18:26:55.058Z,0.35
2022-12-09T18:32:00.457Z,0.36
2022-12-09T18:37:07.871Z,0.37
2022-12-09T18:42:13.680Z,0.37
2022-12-09T18:47:20.960Z,0.35
2022-12-09T18:52:26.785Z,0.30
2022-12-09T18:57:34.549Z,0.27
2022-12-09T19:02:42.775Z,0.26
2022-12-09T19:07:50.438Z,0.28
2022-12-09T19:12:59.244Z,0.28
2022-12-09T19:18:06.768Z,0.29
2022-12-09T19:23:13.986Z,0.27
2022-12-09T19:28:20.830Z,0.19
2022-12-09T19:33:28.143Z,0.19
2022-12-09T19:38:35.533Z,0.22
2022-12-09T19:43:42.737Z,0.25
2022-12-09T19:48:49.800Z,0.29
2022-12-09T19:53:57.973Z,0.28
2022-12-09T19:59:06.508Z,0.28
2022-12-09T20:04:47.135Z,0.29
2022-12-09T20:09:42.837Z,0.29
2022-12-09T20:14:50.428Z,0.30
2022-12-09T20:19:56.128Z,0.29
2022-12-09T20:25:03.639Z,0.27
2022-12-09T20:30:13.107Z,0.24
2022-12-09T20:35:20.897Z,0.24
2022-12-09T20:40:28.180Z,0.25
2022-12-09T20:45:34.031Z,0.26
2022-12-09T20:50:42.963Z,0.27
2022-12-09T20:55:59.295Z,0.28
2022-12-09T21:01:13.830Z,0.27
2022-12-09T21:06:22.949Z,0.28
2022-12-09T21:11:30.124Z,0.30
2022-12-09T21:16:36.952Z,0.31
2022-12-09T21:21:48.546Z,0.32
2022-12-09T21:26:58.628Z,0.33
2022-12-09T21:32:06.180Z,0.32
2022-12-09T21:37:13.423Z,0.30
2022-12-09T21:42:20.671Z,0.30
2022-12-09T21:47:28.506Z,0.31
2022-12-09T21:52:35.772Z,0.32
2022-12-09T21:57:41.598Z,0.31
2022-12-09T22:02:54.709Z,0.31
2022-12-09T22:08:05.220Z,0.32
2022-12-09T22:13:12.659Z,0.35
2022-12-09T22:18:20.509Z,0.34
2022-12-09T22:23:28.490Z,0.30
2022-12-09T22:28:36.149Z,0.30
2022-12-09T22:33:43.870Z,0.32
2022-12-09T22:38:51.852Z,0.33
2022-12-09T22:43:59.754Z,0.36
2022-12-09T22:49:08.394Z,0.39
2022-12-09T22:54:16.633Z,0.41
2022-12-09T22:59:24.133Z,0.40
2022-12-09T23:04:31.625Z,0.40
2022-12-09T23:09:39.343Z,0.41
2022-12-09T23:14:47.998Z,0.42
2022-12-09T23:19:55.273Z,0.41
2022-12-09T23:25:01.207Z,0.41
2022-12-09T23:30:10.563Z,0.42
2022-12-09T23:35:19.659Z,0.41
2022-12-09T23:40:27.242Z,0.42
2022-12-09T23:45:36.459Z,0.45
2022-12-09T23:50:44.314Z,0.48
2022-12-09T23:55:52.512Z,0.50
